createdAt,value
2018-05-31T06:29:11.673Z,4.10
2018-05-31T06:30:12.360Z,4.30
2018-05-31T06:31:13.067Z,4.90
2018-05-31T06:32:13.717Z,4.80
2018-05-31T06:33:14.375Z,5.10
2018-05-31T06:35:15.303Z,4.90
2018-05-31T06:36:15.907Z,4.90
2018-05-31T06:37:16.542Z,4.70
2018-05-31T06:39:17.693Z,4.50
2018-05-31T06:41:18.614Z,5.00
2018-05-31T06:42:29.616Z,4.40
2018-05-31T06:43:30.220Z,4.40
2018-05-31T06:44:30.791Z,4.20
2018-05-31T06:45:31.401Z,4.40
2018-05-31T06:46:31.962Z,4.70
2018-05-31T06:47:32.578Z,4.60
2018-05-31T06:48:33.171Z,4.50
2018-05-31T06:49:33.821Z,4.90
2018-05-31T06:50:34.468Z,4.50
2018-05-31T06:51:35.046Z,4.10
2018-05-31T06:52:35.642Z,4.50
2018-05-31T06:53:36.219Z,4.60
2018-05-31T06:54:36.814Z,4.10
2018-05-31T06:55:37.391Z,4.50
2018-05-31T06:56:37.955Z,4.80
2018-05-31T06:57:38.552Z,4.10
2018-05-31T06:59:39.542Z,3.90
2018-05-31T07:00:40.163Z,3.90
2018-05-31T07:01:57.993Z,4.20
2018-05-31T07:02:58.716Z,4.60
2018-05-31T07:03:59.385Z,4.00
2018-05-31T07:05:00.036Z,4.40
2018-05-31T07:06:00.618Z,4.70
2018-05-31T07:07:01.192Z,4.20
2018-05-31T07:08:01.798Z,4.40
2018-05-31T07:09:02.372Z,4.40
2018-05-31T07:10:02.969Z,4.70
2018-05-31T07:11:03.533Z,4.30
2018-05-31T07:12:04.181Z,4.20
2018-05-31T07:13:04.790Z,4.10
2018-05-31T07:14:05.393Z,4.30
2018-05-31T07:15:05.986Z,4.60
2018-05-31T07:16:06.711Z,3.80
2018-05-31T07:18:07.635Z,4.60
2018-05-31T07:19:08.229Z,4.60
2018-05-31T07:20:08.797Z,4.50
2018-05-31T07:21:17.222Z,4.40
2018-05-31T07:22:54.692Z,3.90
2018-05-31T07:23:51.929Z,4.30
2018-05-31T07:24:52.614Z,4.00
2018-05-31T07:25:53.203Z,4.10
2018-05-31T07:26:53.858Z,3.80
2018-05-31T07:28:29.534Z,4.10
2018-05-31T07:29:23.681Z,4.30
2018-05-31T07:30:24.261Z,4.50
2018-05-31T07:32:25.110Z,4.60
2018-05-31T07:33:25.729Z,4.20
2018-05-31T07:35:26.601Z,4.30
2018-05-31T07:36:27.163Z,4.50
2018-05-31T07:37:27.731Z,4.20
2018-05-31T07:38:28.301Z,4.60
2018-05-31T07:39:28.880Z,5.00
2018-05-31T07:41:29.768Z,4.80
2018-05-31T07:42:30.375Z,4.30
2018-05-31T07:43:30.939Z,4.40
2018-05-31T07:44:31.616Z,4.40
2018-05-31T07:45:32.472Z,4.40
2018-05-31T07:46:33.079Z,4.10
2018-05-31T07:47:33.666Z,4.30
2018-05-31T07:48:34.241Z,4.40
2018-05-31T07:49:34.887Z,4.50
2018-05-31T07:50:35.505Z,4.40
2018-05-31T07:51:36.093Z,4.20
2018-05-31T07:52:36.717Z,3.90
2018-05-31T07:53:37.312Z,4.00
2018-05-31T07:54:37.930Z,4.00
2018-05-31T07:55:38.529Z,4.10
2018-05-31T07:56:39.188Z,4.40
2018-05-31T07:57:55.770Z,4.50
2018-05-31T07:58:57.073Z,4.50
2018-05-31T07:59:57.725Z,4.60
2018-05-31T08:00:58.323Z,4.30
2018-05-31T08:01:58.883Z,4.40
2018-05-31T08:02:59.446Z,4.20
2018-05-31T08:04:00.059Z,4.40
2018-05-31T08:05:00.667Z,4.70
2018-05-31T08:06:01.294Z,4.60
2018-05-31T08:07:01.931Z,4.00
2018-05-31T08:08:02.575Z,4.40
2018-05-31T08:09:03.151Z,4.10
2018-05-31T08:10:03.805Z,4.10
2018-05-31T08:11:04.385Z,4.60
2018-05-31T08:12:05.171Z,4.20
2018-05-31T08:13:06.480Z,4.50
2018-05-31T08:14:07.072Z,3.90
2018-05-31T08:15:07.682Z,4.30
2018-05-31T08:16:08.259Z,4.70
2018-05-31T08:54:17.622Z,3.40
2018-05-31T08:55:18.185Z,4.50
2018-05-31T08:57:19.080Z,4.10
2018-05-31T08:58:19.723Z,3.90
2018-05-31T08:59:20.350Z,4.40
2018-05-31T09:00:20.952Z,3.70
2018-05-31T09:01:21.540Z,3.80
2018-05-31T09:02:22.188Z,3.60
2018-05-31T09:03:22.780Z,3.60
2018-05-31T09:04:23.363Z,3.80
2018-05-31T09:05:23.934Z,3.60
2018-05-31T09:07:24.804Z,3.60
2018-05-31T09:08:25.421Z,3.50
2018-05-31T09:09:26.035Z,3.80
2018-05-31T09:10:26.678Z,3.50
2018-05-31T09:11:27.264Z,3.60
2018-05-31T09:12:27.855Z,3.70
2018-05-31T09:13:28.436Z,3.50
2018-05-31T09:14:29.090Z,3.30
2018-05-31T09:15:29.785Z,3.20
2018-05-31T09:16:30.355Z,3.20
2018-05-31T09:17:30.966Z,3.00
2018-05-31T09:18:31.566Z,3.40
2018-05-31T09:19:32.163Z,3.10
2018-05-31T09:20:32.808Z,3.20
2018-05-31T09:21:33.400Z,3.10
2018-05-31T09:22:33.971Z,3.20
2018-05-31T09:23:34.597Z,3.20
2018-05-31T09:24:35.237Z,3.30
2018-05-31T09:25:35.842Z,2.90
2018-05-31T09:26:36.408Z,3.20
2018-05-31T09:27:37.036Z,3.20
2018-05-31T09:29:37.936Z,3.10
2018-05-31T09:30:38.506Z,3.00
2018-05-31T09:32:39.565Z,3.30
2018-05-31T09:33:40.240Z,3.30
2018-05-31T09:34:40.818Z,3.50
2018-05-31T09:35:41.411Z,3.20
2018-05-31T09:36:41.982Z,3.10
2018-05-31T09:37:42.585Z,3.10
2018-05-31T09:38:43.196Z,3.10
2018-05-31T09:39:43.782Z,3.10
2018-05-31T09:40:44.364Z,3.00
2018-05-31T09:42:45.216Z,3.10
2018-05-31T09:43:45.892Z,3.20
2018-05-31T09:44:46.466Z,3.20
2018-05-31T09:45:47.078Z,3.40
2018-05-31T09:46:47.639Z,3.20
2018-05-31T09:47:48.220Z,3.10
2018-05-31T09:48:48.804Z,3.30
2018-05-31T09:49:49.386Z,3.20
2018-05-31T09:50:50.237Z,2.90
2018-05-31T09:51:50.877Z,2.90
2018-05-31T09:52:51.453Z,3.00
2018-05-31T09:53:52.050Z,3.00
2018-05-31T09:54:52.659Z,2.70
2018-05-31T09:55:53.269Z,2.60
2018-05-31T09:56:53.873Z,3.10
2018-05-31T09:57:54.508Z,3.00
2018-05-31T09:58:55.125Z,3.00
2018-05-31T09:59:55.706Z,2.90
2018-05-31T10:00:56.292Z,3.20
2018-05-31T10:02:57.203Z,3.00
2018-05-31T10:03:57.888Z,2.90
2018-05-31T10:04:59.230Z,3.20
2018-05-31T10:05:59.810Z,2.80
2018-05-31T10:07:00.536Z,3.20
2018-05-31T10:08:01.129Z,2.90
2018-05-31T10:09:01.708Z,2.80
2018-05-31T10:10:02.308Z,3.10
2018-05-31T10:11:02.910Z,3.10
2018-05-31T10:12:03.491Z,3.30
2018-05-31T10:13:04.086Z,2.90
2018-05-31T10:14:04.670Z,2.90
2018-05-31T10:15:05.244Z,3.10
2018-05-31T10:16:05.856Z,3.00
2018-05-31T10:17:06.484Z,3.00
2018-05-31T10:18:07.101Z,2.90
2018-05-31T10:19:07.684Z,2.90
2018-05-31T10:20:08.270Z,3.00
2018-05-31T10:21:08.866Z,2.90
2018-05-31T10:22:09.448Z,3.00
2018-05-31T10:23:10.022Z,3.10
2018-05-31T10:24:10.591Z,2.90
2018-05-31T10:25:11.167Z,3.20
2018-05-31T10:26:11.750Z,2.80
2018-05-31T10:27:12.316Z,2.90
2018-05-31T10:28:12.887Z,3.30
2018-05-31T10:29:13.482Z,3.10
2018-05-31T10:30:14.866Z,2.80
2018-05-31T10:31:15.456Z,3.30
2018-05-31T10:32:16.072Z,3.10
2018-05-31T10:33:16.636Z,3.20
2018-05-31T10:34:17.242Z,3.20
2018-05-31T10:35:17.836Z,3.00
2018-05-31T10:36:18.415Z,2.70
2018-05-31T10:37:19.003Z,2.90
2018-05-31T10:38:19.629Z,3.40
2018-05-31T10:39:20.226Z,2.90
2018-05-31T10:40:20.813Z,3.00
2018-05-31T10:41:21.406Z,2.90
2018-05-31T10:42:22.096Z,3.20
2018-05-31T10:43:22.670Z,3.10
2018-05-31T10:44:23.331Z,2.70
2018-05-31T10:45:23.925Z,3.00
2018-05-31T10:46:29.607Z,3.00
2018-05-31T10:47:30.322Z,3.10
2018-05-31T10:48:31.582Z,3.10
2018-05-31T10:49:32.181Z,3.10
2018-05-31T10:50:33.557Z,3.30
2018-05-31T10:51:34.154Z,3.20
2018-05-31T10:52:34.770Z,3.00
2018-05-31T10:53:35.416Z,3.10
2018-05-31T10:54:36.036Z,3.20
2018-05-31T10:55:38.238Z,2.80
2018-05-31T10:56:38.873Z,3.10
2018-05-31T10:57:39.469Z,3.10
2018-05-31T10:58:40.033Z,3.10
2018-05-31T10:59:40.627Z,3.00
2018-05-31T11:00:41.253Z,3.10
2018-05-31T11:01:41.841Z,3.40
2018-05-31T11:02:42.451Z,3.20
2018-05-31T11:03:43.031Z,3.20
2018-05-31T11:04:43.632Z,3.10
2018-05-31T11:05:44.202Z,3.30
2018-05-31T11:06:44.928Z,3.00
2018-05-31T11:07:45.521Z,3.20
2018-05-31T11:08:46.083Z,3.50
2018-05-31T11:09:46.685Z,3.40
2018-05-31T11:10:47.266Z,3.20
2018-05-31T11:11:47.881Z,3.20
2018-05-31T11:12:48.502Z,3.20
2018-05-31T11:13:49.079Z,3.30
2018-05-31T11:14:49.691Z,3.40
2018-05-31T11:15:50.266Z,3.00
2018-05-31T11:16:50.870Z,3.00
2018-05-31T11:17:51.446Z,3.50
2018-05-31T11:18:52.045Z,3.00
2018-05-31T11:19:52.632Z,3.10
2018-05-31T11:20:53.240Z,3.20
2018-05-31T11:21:53.845Z,3.30
2018-05-31T11:22:54.416Z,3.30
2018-05-31T11:23:55.058Z,3.30
2018-05-31T11:24:55.657Z,3.20
2018-05-31T11:26:09.657Z,3.10
2018-05-31T11:27:10.278Z,3.20
2018-05-31T11:28:10.850Z,3.20
2018-05-31T11:29:11.440Z,3.00
2018-05-31T11:30:12.051Z,3.10
2018-05-31T11:31:12.723Z,3.30
2018-05-31T11:32:13.283Z,3.40
2018-05-31T11:33:13.966Z,3.30
2018-05-31T11:34:14.553Z,3.50
2018-05-31T11:35:15.150Z,3.00
2018-05-31T11:36:15.759Z,2.90
2018-05-31T11:37:16.325Z,3.60
2018-05-31T11:38:17.006Z,3.40
2018-05-31T11:39:17.697Z,3.20
2018-05-31T11:40:18.298Z,3.20
2018-05-31T11:41:18.908Z,3.50
2018-05-31T11:42:20.052Z,3.10
2018-05-31T11:43:20.659Z,3.40
2018-05-31T11:44:21.236Z,3.60
2018-05-31T11:45:21.958Z,3.20
2018-05-31T11:46:22.559Z,3.40
2018-05-31T11:47:23.208Z,3.30
2018-05-31T11:48:23.792Z,3.20
2018-05-31T11:49:24.358Z,3.60
2018-05-31T11:50:25.003Z,3.10
2018-05-31T11:51:45.721Z,3.20
2018-05-31T11:52:46.316Z,3.20
2018-05-31T11:53:46.902Z,3.50
2018-05-31T11:54:47.502Z,3.30
2018-05-31T11:55:48.490Z,3.60
2018-05-31T11:56:49.255Z,3.40
2018-05-31T11:57:49.857Z,3.40
2018-05-31T11:58:50.462Z,3.50
2018-05-31T11:59:51.061Z,3.40
2018-05-31T12:00:51.656Z,3.30
2018-05-31T12:01:52.278Z,3.50
2018-05-31T12:02:52.888Z,3.20
2018-05-31T12:04:02.180Z,3.30
2018-05-31T12:05:02.840Z,3.40
2018-05-31T12:06:03.423Z,3.40
2018-05-31T12:07:04.012Z,3.60
2018-05-31T12:08:04.634Z,3.30
2018-05-31T12:09:05.214Z,3.20
2018-05-31T12:10:05.819Z,3.40
2018-05-31T12:11:06.438Z,3.40
2018-05-31T12:12:07.055Z,3.20
2018-05-31T12:13:07.637Z,3.30
2018-05-31T12:14:08.234Z,3.10
2018-05-31T12:15:08.829Z,3.50
2018-05-31T12:16:09.408Z,3.60
2018-05-31T12:17:19.737Z,3.40
2018-05-31T12:18:22.385Z,3.20
2018-05-31T12:19:31.888Z,3.40
2018-05-31T12:20:32.511Z,3.20
2018-05-31T12:21:33.148Z,3.10
2018-05-31T12:22:33.758Z,3.10
2018-05-31T12:23:34.385Z,3.10
2018-05-31T12:24:34.967Z,3.60
2018-05-31T12:25:35.568Z,3.30
2018-05-31T12:26:36.202Z,3.60
2018-05-31T12:27:36.782Z,3.30
2018-05-31T12:28:37.958Z,3.70
2018-05-31T12:29:38.534Z,3.10
2018-05-31T12:30:39.099Z,3.30
2018-05-31T12:31:39.678Z,3.50
2018-05-31T12:32:40.287Z,3.20
2018-05-31T12:33:40.928Z,3.10
2018-05-31T12:34:41.598Z,3.10
2018-05-31T12:35:42.167Z,4.10
2018-05-31T12:36:42.760Z,3.60
2018-05-31T12:37:43.415Z,3.10
2018-05-31T12:38:44.061Z,3.50
2018-05-31T12:39:44.685Z,3.30
2018-05-31T12:40:45.266Z,3.00
2018-05-31T12:41:45.841Z,3.50
2018-05-31T12:42:46.410Z,3.30
2018-05-31T12:43:47.594Z,3.30
2018-05-31T12:44:48.171Z,3.50
2018-05-31T12:45:48.809Z,3.10
2018-05-31T12:46:49.441Z,3.10
2018-05-31T12:47:50.042Z,3.40
2018-05-31T12:48:50.637Z,3.00
2018-05-31T12:49:51.226Z,3.40
2018-05-31T12:50:51.805Z,3.20
2018-05-31T12:51:52.384Z,3.10
2018-05-31T12:52:52.993Z,3.20
2018-05-31T12:53:53.566Z,3.40
2018-05-31T12:54:54.130Z,3.40
2018-05-31T12:55:54.683Z,3.40
2018-05-31T12:56:56.001Z,3.10
2018-05-31T12:57:56.652Z,3.10
2018-05-31T12:58:57.213Z,3.00
2018-05-31T12:59:57.820Z,3.50
2018-05-31T13:00:58.381Z,3.00
2018-05-31T13:02:59.330Z,3.00
2018-05-31T13:04:00.022Z,3.20
2018-05-31T13:05:00.599Z,3.00
2018-05-31T13:06:01.256Z,3.00
2018-05-31T13:07:01.836Z,3.30
2018-05-31T13:08:02.414Z,3.00
2018-05-31T13:09:03.047Z,4.50
2018-05-31T13:10:03.678Z,4.40
2018-05-31T13:11:04.250Z,4.40
2018-05-31T13:12:04.809Z,3.40
2018-05-31T13:13:05.435Z,3.60
2018-05-31T13:14:06.019Z,3.80
2018-05-31T13:15:06.611Z,3.50
2018-05-31T13:16:07.210Z,3.60
2018-05-31T13:17:12.670Z,3.60
2018-05-31T13:18:13.382Z,3.90
2018-05-31T13:19:13.999Z,3.40
2018-05-31T13:20:14.779Z,3.30
2018-05-31T13:21:15.409Z,3.20
2018-05-31T13:22:16.013Z,3.20
2018-05-31T13:23:16.674Z,3.40
2018-05-31T13:24:17.226Z,3.00
2018-05-31T13:25:17.880Z,3.40
2018-05-31T13:26:18.519Z,2.80
2018-05-31T13:28:19.392Z,3.30
2018-05-31T13:29:20.080Z,2.60
2018-05-31T13:30:20.667Z,3.20
2018-05-31T13:31:21.275Z,3.10
2018-05-31T13:32:21.852Z,3.20
2018-05-31T13:33:22.446Z,3.10
2018-05-31T13:34:23.026Z,3.10
2018-05-31T13:35:23.599Z,3.40
2018-05-31T13:36:24.158Z,3.20
2018-05-31T13:37:24.742Z,3.10
2018-05-31T13:38:25.469Z,2.90
2018-05-31T13:39:26.063Z,3.20
2018-05-31T13:40:26.668Z,3.30
2018-05-31T13:41:27.235Z,3.00
2018-05-31T13:42:27.831Z,2.90
2018-05-31T13:43:29.446Z,3.10
2018-05-31T13:44:30.134Z,2.90
2018-05-31T13:45:38.536Z,2.70
2018-05-31T13:47:21.928Z,2.70
2018-05-31T13:48:32.703Z,2.70
2018-05-31T13:50:24.941Z,3.00
2018-05-31T13:51:51.236Z,2.70
2018-05-31T13:53:05.958Z,3.10
2018-05-31T13:54:18.198Z,2.90
2018-05-31T13:55:47.096Z,3.20
2018-05-31T13:56:51.338Z,2.60
2018-05-31T13:57:53.835Z,2.60
2018-05-31T13:59:49.520Z,2.80
2018-05-31T14:00:40.345Z,2.80
2018-05-31T14:01:40.956Z,2.80
2018-05-31T14:02:43.709Z,2.90
2018-05-31T14:03:55.967Z,3.10
2018-05-31T14:05:12.509Z,2.80
2018-05-31T14:09:29.230Z,2.60
2018-05-31T14:10:03.347Z,2.80
2018-05-31T14:11:05.919Z,2.80
2018-05-31T14:12:07.867Z,3.00
2018-05-31T14:13:20.270Z,2.90
2018-05-31T14:14:23.630Z,2.70
2018-05-31T14:16:55.570Z,2.70
2018-05-31T14:19:01.915Z,2.80
2018-05-31T14:20:14.560Z,2.90
2018-05-31T14:21:27.752Z,2.80
2018-05-31T14:24:09.711Z,2.90
2018-05-31T14:25:29.327Z,2.80
2018-05-31T14:26:51.242Z,2.70
2018-05-31T14:27:52.869Z,2.90
2018-05-31T14:29:41.165Z,2.80
2018-05-31T14:30:46.462Z,2.80
2018-05-31T14:31:47.981Z,3.00
2018-05-31T14:33:00.893Z,3.00
2018-05-31T14:34:03.407Z,2.80
2018-05-31T14:35:44.306Z,2.90
2018-05-31T14:36:56.651Z,2.90
2018-05-31T14:38:07.199Z,2.90
2018-05-31T14:39:28.931Z,3.10
2018-05-31T14:40:29.617Z,2.80
2018-05-31T14:42:16.235Z,3.30
2018-05-31T14:44:24.772Z,3.30
2018-05-31T14:48:01.750Z,3.10
2018-05-31T14:49:02.399Z,3.20
2018-05-31T14:50:29.666Z,3.20
2018-05-31T14:51:30.278Z,3.00
2018-05-31T14:52:30.840Z,3.00
2018-05-31T14:53:31.517Z,3.10
2018-05-31T14:54:34.080Z,3.30
2018-05-31T14:55:34.698Z,3.00
2018-05-31T14:56:35.301Z,3.20
2018-05-31T14:57:35.884Z,3.10
2018-05-31T14:59:06.041Z,3.30
2018-05-31T15:00:12.931Z,3.30
2018-05-31T15:01:45.403Z,2.80
2018-05-31T15:03:56.472Z,2.90
2018-05-31T15:04:57.194Z,2.90
2018-05-31T15:05:57.752Z,3.20
2018-05-31T15:06:58.336Z,2.80
2018-05-31T15:07:58.979Z,3.30
2018-05-31T15:09:03.455Z,3.10
2018-05-31T15:11:04.985Z,3.00
2018-05-31T15:12:05.579Z,2.90
2018-05-31T15:13:06.159Z,3.00
2018-05-31T15:14:06.754Z,3.20
2018-05-31T15:15:07.333Z,2.60
2018-05-31T15:16:08.003Z,3.00
2018-05-31T15:17:08.589Z,2.80
2018-05-31T15:18:09.173Z,3.00
2018-05-31T15:19:15.348Z,2.90
2018-05-31T15:20:15.922Z,3.10
2018-05-31T15:21:16.473Z,3.10
2018-05-31T15:22:23.110Z,3.00
2018-05-31T15:24:24.947Z,3.30
2018-05-31T15:25:25.529Z,2.80
2018-05-31T15:26:26.180Z,3.20
2018-05-31T15:27:26.934Z,3.30
2018-05-31T15:28:27.519Z,3.40
2018-05-31T15:29:28.117Z,3.10
2018-05-31T15:30:28.682Z,3.10
2018-05-31T15:31:29.321Z,3.10
2018-05-31T15:32:29.896Z,3.10
2018-05-31T15:33:30.496Z,3.40
2018-05-31T15:35:31.343Z,3.20
2018-05-31T15:36:31.967Z,4.00
2018-05-31T15:38:32.826Z,3.30
2018-05-31T15:39:33.418Z,3.50
2018-05-31T15:40:34.010Z,3.30
2018-05-31T15:41:38.546Z,3.30
2018-05-31T15:43:39.450Z,3.30
2018-05-31T15:44:40.030Z,3.10
2018-05-31T15:45:40.609Z,3.30
2018-05-31T15:46:41.194Z,3.10
2018-05-31T15:47:41.789Z,3.30
2018-05-31T15:48:42.381Z,3.10
2018-05-31T15:50:43.235Z,3.20
2018-05-31T15:51:43.831Z,3.10
2018-05-31T15:52:44.377Z,3.30
2018-05-31T15:53:44.981Z,3.50
2018-05-31T15:54:45.572Z,3.20
2018-05-31T15:55:46.169Z,3.70
2018-05-31T15:56:46.731Z,3.10
2018-05-31T15:57:47.304Z,3.00
2018-05-31T15:58:47.884Z,3.20
2018-05-31T15:59:48.442Z,3.30
2018-05-31T16:00:49.013Z,3.30
2018-05-31T16:01:49.692Z,3.20
2018-05-31T16:02:50.275Z,3.30
2018-05-31T16:03:50.864Z,3.40
2018-05-31T16:04:51.428Z,2.90
2018-05-31T16:05:56.263Z,3.10
2018-05-31T16:06:57.042Z,3.10
2018-05-31T16:07:57.598Z,3.20
2018-05-31T16:08:58.167Z,3.20
2018-05-31T16:09:58.733Z,3.00
2018-05-31T16:10:59.338Z,2.90
2018-05-31T16:11:59.914Z,3.30
2018-05-31T16:13:00.514Z,3.40
2018-05-31T16:14:01.093Z,3.10
2018-05-31T16:15:01.662Z,3.30
2018-05-31T16:16:02.236Z,3.40
2018-05-31T16:17:02.820Z,3.30
2018-05-31T16:18:03.504Z,3.20
2018-05-31T16:19:04.122Z,3.40
2018-05-31T16:20:04.732Z,3.00
2018-05-31T16:21:05.428Z,3.50
2018-05-31T16:22:06.045Z,3.60
2018-05-31T16:23:06.768Z,4.00
2018-05-31T16:24:07.331Z,3.90
2018-05-31T16:25:09.006Z,3.70
2018-05-31T16:26:09.607Z,4.00
2018-05-31T16:27:10.184Z,4.00
2018-05-31T16:28:10.748Z,4.00
2018-05-31T16:29:11.344Z,3.70
2018-05-31T16:30:11.947Z,3.40
2018-05-31T16:31:12.635Z,3.10
2018-05-31T16:32:13.277Z,3.20
2018-05-31T16:33:13.908Z,3.20
2018-05-31T16:34:14.517Z,3.20
2018-05-31T16:35:15.099Z,3.20
2018-05-31T16:36:15.698Z,3.40
2018-05-31T16:37:16.337Z,3.50
2018-05-31T16:38:16.958Z,3.10
2018-05-31T16:39:17.553Z,3.10
2018-05-31T16:40:18.117Z,3.00
2018-05-31T16:41:18.682Z,3.20
2018-05-31T16:42:19.257Z,3.10
2018-05-31T16:43:19.875Z,3.20
2018-05-31T16:44:20.489Z,3.10
2018-05-31T16:45:21.155Z,2.80
2018-05-31T16:46:21.714Z,2.90
2018-05-31T16:47:22.292Z,3.00
2018-05-31T16:48:22.882Z,3.20
2018-05-31T16:49:23.549Z,2.90
2018-05-31T16:50:24.175Z,3.20
2018-05-31T16:51:24.741Z,3.20
2018-05-31T16:52:25.361Z,3.10
2018-05-31T16:53:25.952Z,3.10
2018-05-31T16:54:26.565Z,3.10
2018-05-31T16:55:27.171Z,3.20
2018-05-31T16:56:27.756Z,3.00
2018-05-31T16:57:28.350Z,3.30
2018-05-31T16:58:28.926Z,3.30
2018-05-31T16:59:29.520Z,2.90
2018-05-31T17:00:30.092Z,3.10
2018-05-31T17:01:30.777Z,3.20
